< < Back
Terminal Aerodrome Forecast


Current Version              Previous Versions:   1  2  3  4  5  6  7  8  9  

Terminal Aerodrome Forecast

150
FTUS42 KCHS 251733
TAFCHS
TAF
KCHS 251733Z 2518/2618 08008KT P6SM SCT050
     FM252200 13009KT P6SM SKC
     FM260200 VRB03KT P6SM SKC=



Latest METAR

106
SAUS80 KWBC 260800 CCA
MTRCHS
METAR KCHS 260756Z 00000KT 10SM CLR 23/21 A3008 RMK AO2 SLP184
T02330211


USA.gov is the U.S. government's official web portal to all federal, state and local government web resources and services.